createdAt,value
2018-04-07T00:05:58.602Z,36.84
2018-04-07T00:06:58.547Z,35.88
2018-04-07T00:08:51.969Z,36.16
2018-04-07T02:52:54.273Z,39.91
2018-04-07T02:54:29.700Z,39.81
2018-04-07T02:55:29.693Z,39.93
2018-04-07T02:57:23.167Z,40.00
2018-04-07T02:58:23.069Z,39.91
2018-04-07T03:00:16.489Z,40.48
2018-04-07T03:01:16.442Z,40.31
2018-04-07T03:03:09.820Z,40.12
2018-04-07T03:04:09.817Z,40.12
2018-04-07T03:06:03.247Z,39.93
2018-04-07T03:07:03.204Z,39.83
2018-04-07T03:08:56.626Z,39.93
2018-04-07T03:09:56.579Z,39.93
2018-04-07T03:11:50.040Z,39.93
2018-04-07T03:12:49.985Z,39.93
2018-04-07T03:14:43.382Z,39.93
2018-04-07T03:15:43.384Z,40.02
2018-04-07T03:17:36.797Z,39.83
2018-04-07T03:18:36.780Z,40.12
2018-04-07T03:20:30.166Z,40.02
2018-04-07T03:21:30.119Z,39.93
2018-04-07T03:23:23.506Z,40.02
2018-04-07T03:24:23.511Z,39.93
2018-04-07T03:26:16.932Z,40.02
2018-04-07T03:27:16.888Z,39.93
2018-04-07T03:29:10.275Z,39.93
2018-04-07T03:30:10.278Z,39.93
2018-04-07T03:32:03.707Z,39.93
2018-04-07T03:33:03.659Z,39.93
2018-04-07T03:34:57.045Z,40.02
2018-04-07T03:35:57.045Z,39.93
2018-04-07T03:37:50.476Z,39.83
2018-04-07T03:38:50.427Z,40.02
2018-04-07T03:40:43.861Z,39.93
2018-04-07T03:41:43.812Z,39.93
2018-04-07T03:43:37.199Z,39.93
2018-04-07T03:44:37.196Z,39.93
2018-04-07T03:46:30.629Z,39.93
2018-04-07T03:47:30.581Z,39.93
2018-04-07T03:49:23.968Z,39.93
2018-04-07T03:50:23.969Z,40.02
2018-04-07T03:52:17.399Z,40.02
2018-04-07T03:53:17.356Z,39.93
2018-04-07T03:55:10.798Z,39.83
2018-04-07T03:56:10.750Z,40.02
2018-04-07T03:58:04.182Z,39.93
2018-04-07T03:59:04.141Z,39.93
2018-04-07T04:00:57.567Z,39.93
2018-04-07T04:01:57.519Z,39.93
2018-04-07T04:03:50.907Z,39.93
2018-04-07T04:04:50.903Z,39.83
2018-04-07T04:06:45.340Z,39.83
2018-04-07T04:07:45.292Z,39.93
2018-04-07T04:09:38.680Z,39.93
2018-04-07T04:10:38.678Z,39.93
2018-04-07T04:12:32.108Z,40.12
2018-04-07T04:13:32.063Z,39.93
2018-04-07T04:15:25.496Z,40.12
2018-04-07T04:16:25.448Z,39.93
2018-04-07T04:18:18.839Z,40.12
2018-04-07T04:19:18.845Z,39.93
2018-04-07T04:21:12.265Z,40.31
2018-04-07T04:22:12.221Z,40.31
2018-04-07T04:24:05.603Z,40.60
2018-04-07T04:25:05.604Z,40.41
2018-04-07T04:26:59.036Z,40.41
2018-04-07T04:27:58.989Z,40.41
2018-04-07T04:29:52.373Z,40.50
2018-04-07T04:30:52.373Z,40.60
2018-04-07T04:32:45.809Z,40.41
2018-04-07T04:33:45.761Z,40.41
2018-04-07T04:35:40.190Z,40.50
2018-04-07T04:36:40.147Z,40.60
2018-04-07T04:38:33.532Z,40.31
2018-04-07T04:39:33.531Z,40.41
2018-04-07T04:41:26.963Z,40.50
2018-04-07T04:42:26.915Z,40.41
2018-04-07T04:44:20.301Z,40.31
2018-04-07T04:45:20.301Z,40.41
2018-04-07T04:47:13.736Z,40.12
2018-04-07T04:48:13.688Z,40.22
2018-04-07T04:50:08.071Z,40.22
2018-04-07T04:51:08.071Z,40.22
2018-04-07T04:53:01.501Z,40.31
2018-04-07T04:54:01.454Z,40.12
2018-04-07T04:55:54.886Z,40.22
2018-04-07T04:56:54.839Z,40.12
2018-04-07T04:58:48.225Z,40.31
2018-04-07T04:59:48.224Z,40.41
2018-04-07T05:01:41.659Z,40.50
2018-04-07T05:02:41.634Z,40.50
2018-04-07T05:04:34.995Z,40.31
2018-04-07T05:05:34.995Z,40.70
2018-04-07T05:07:28.423Z,40.50
2018-04-07T05:08:28.377Z,40.79
2018-04-07T05:10:21.769Z,40.70
2018-04-07T05:11:21.761Z,40.79
2018-04-07T05:13:15.199Z,40.60
2018-04-07T05:14:15.147Z,40.79
2018-04-07T05:16:08.579Z,41.17
2018-04-07T05:17:08.530Z,41.17
2018-04-07T05:19:01.919Z,40.89
2018-04-07T05:20:01.951Z,40.60
2018-04-07T05:21:55.346Z,40.41
2018-04-07T05:22:55.302Z,40.41
2018-04-07T05:24:49.745Z,40.22
2018-04-07T05:25:49.689Z,40.31
2018-04-07T05:27:43.122Z,40.41
2018-04-07T05:28:43.092Z,40.41
2018-04-07T05:30:37.479Z,40.41
2018-04-07T05:31:37.517Z,40.50
2018-04-07T05:33:30.914Z,40.31
2018-04-07T05:34:30.858Z,40.31
2018-04-07T05:36:24.615Z,40.12
2018-04-07T05:37:24.308Z,40.02
2018-04-07T05:39:17.630Z,40.12
2018-04-07T05:40:18.243Z,39.93
2018-04-07T05:42:11.085Z,40.12
2018-04-07T05:43:11.036Z,40.02
2018-04-07T05:45:04.415Z,40.12
2018-04-07T05:46:04.386Z,40.41
2018-04-07T05:47:57.876Z,40.31
2018-04-07T05:48:57.819Z,40.31
2018-04-07T05:50:51.190Z,40.31
2018-04-07T05:51:51.223Z,40.31
2018-04-07T05:53:45.151Z,40.41
2018-04-07T05:54:45.623Z,40.22
2018-04-07T05:56:38.007Z,40.41
2018-04-07T05:57:37.961Z,40.31
2018-04-07T05:59:31.354Z,40.31
2018-04-07T06:00:33.983Z,40.41
2018-04-07T06:02:24.786Z,40.31
2018-04-07T06:03:25.281Z,40.12
2018-04-07T06:05:18.312Z,40.41
2018-04-07T06:06:18.109Z,40.50
2018-04-07T06:08:12.543Z,40.31
2018-04-07T06:09:12.519Z,40.22
2018-04-07T06:11:06.116Z,40.31
2018-04-07T06:12:06.274Z,40.31
2018-04-07T06:14:00.632Z,40.60
2018-04-07T06:15:00.284Z,40.50
2018-04-07T06:16:54.749Z,40.50
2018-04-07T06:17:53.977Z,40.41
2018-04-07T06:19:47.071Z,40.41
2018-04-07T06:20:47.543Z,40.31
2018-04-07T06:22:40.505Z,40.50
2018-04-07T06:23:40.422Z,40.41
2018-04-07T06:25:33.843Z,40.41
2018-04-07T06:26:33.861Z,40.41
2018-04-07T06:28:27.598Z,40.31
2018-04-07T06:29:27.226Z,40.31
2018-04-07T06:31:21.208Z,40.22
2018-04-07T06:32:20.610Z,40.22
2018-04-07T06:34:14.118Z,40.22
2018-04-07T06:35:14.611Z,40.41
2018-04-07T06:37:08.429Z,40.31
2018-04-07T06:38:07.384Z,40.22
2018-04-07T06:40:00.756Z,40.22
2018-04-07T06:41:00.756Z,40.31
2018-04-07T06:42:54.292Z,40.22
2018-04-07T06:43:54.190Z,40.31
2018-04-07T06:45:47.579Z,40.31
2018-04-07T06:46:47.604Z,40.22
2018-04-07T06:48:41.028Z,40.31
2018-04-07T06:49:41.273Z,40.31
2018-04-07T06:51:34.386Z,40.41
2018-04-07T06:52:34.366Z,40.22
2018-04-07T06:54:27.825Z,40.22
2018-04-07T06:55:27.758Z,40.12
2018-04-07T07:00:27.034Z,40.60
2018-04-07T07:01:26.582Z,40.41
2018-04-07T07:03:19.774Z,40.12
2018-04-07T07:04:20.267Z,40.41
2018-04-07T07:06:13.094Z,40.22
2018-04-07T07:07:13.085Z,40.50
2018-04-07T07:09:06.891Z,40.31
2018-04-07T07:10:07.114Z,40.41
2018-04-07T07:12:00.866Z,40.41
2018-04-07T07:13:00.872Z,40.41
2018-04-07T07:14:55.313Z,40.41
2018-04-07T07:15:55.235Z,40.50
2018-04-07T07:17:49.685Z,40.31
2018-04-07T07:18:49.654Z,40.41
2018-04-07T07:20:43.016Z,40.50
2018-04-07T07:21:43.054Z,40.70
2018-04-07T07:23:37.506Z,40.89
2018-04-07T07:24:37.498Z,40.89
2018-04-07T07:26:31.783Z,39.04
2018-04-07T07:27:31.784Z,38.07
2018-04-07T07:29:25.244Z,37.40
2018-04-07T07:30:25.221Z,37.97
2018-04-07T07:32:18.734Z,38.74
2018-04-07T07:33:19.139Z,37.87
2018-04-07T07:35:11.934Z,46.75
2018-04-07T07:36:11.978Z,48.38
2018-04-07T07:38:06.358Z,48.38
2018-04-07T07:39:06.365Z,47.80
2018-04-07T07:40:59.766Z,43.18
2018-04-07T07:41:59.715Z,43.56
2018-04-07T08:30:01.656Z,39.03
2018-04-07T08:31:01.605Z,38.54
2018-04-07T08:32:56.025Z,38.85
2018-04-07T08:33:55.972Z,40.02
2018-04-07T08:35:50.360Z,45.61
2018-04-07T08:36:50.357Z,51.09
2018-04-07T08:38:43.785Z,60.43
2018-04-07T08:39:43.738Z,63.79
2018-04-07T08:41:38.121Z,63.64
2018-04-07T08:42:38.120Z,62.68
2018-04-07T08:44:31.553Z,62.96
2018-04-07T08:45:31.509Z,73.86
2018-04-07T08:47:24.897Z,39.83
2018-04-07T08:48:24.894Z,37.13
2018-04-07T08:50:18.325Z,37.89
2018-04-07T08:51:18.278Z,38.09
2018-04-07T08:53:11.708Z,38.56
2018-04-07T08:54:11.659Z,39.14
2018-04-07T08:56:05.042Z,39.14
2018-04-07T08:57:05.041Z,39.62
2018-04-07T08:58:58.470Z,39.03
2018-04-07T08:59:58.422Z,39.12
2018-04-07T09:01:51.802Z,39.22
2018-04-07T09:02:51.799Z,39.03
2018-04-07T09:04:45.228Z,38.64
2018-04-07T09:05:45.179Z,38.45
2018-04-07T09:07:38.565Z,38.64
2018-04-07T09:08:38.572Z,38.26
2018-04-07T09:10:31.988Z,38.35
2018-04-07T09:11:31.940Z,38.26
2018-04-07T09:13:25.370Z,37.97
2018-04-07T09:14:25.319Z,37.97
2018-04-07T09:16:23.433Z,37.30
2018-04-07T09:17:23.432Z,38.07
2018-04-07T09:19:16.856Z,38.45
2018-04-07T09:20:16.860Z,38.07
2018-04-07T09:22:10.189Z,37.51
2018-04-07T09:23:10.188Z,37.32
2018-04-07T09:25:03.623Z,37.32
2018-04-07T09:26:03.584Z,37.13
2018-04-07T09:27:56.956Z,37.03
2018-04-07T09:28:56.952Z,36.55
2018-04-07T09:30:55.481Z,36.55
2018-04-07T09:31:55.432Z,36.65
2018-04-07T09:33:48.874Z,36.47
2018-04-07T09:34:48.810Z,36.55
2018-04-07T09:36:42.194Z,36.84
2018-04-07T09:37:42.192Z,36.47
2018-04-07T09:39:35.615Z,36.86
2018-04-07T09:40:35.570Z,36.84
2018-04-07T09:42:29.047Z,36.66
2018-04-07T09:43:28.952Z,36.76
2018-04-07T09:45:22.376Z,37.15
2018-04-07T09:46:22.326Z,37.03
2018-04-07T09:48:15.709Z,37.34
2018-04-07T09:49:15.710Z,37.15
2018-04-07T09:51:09.136Z,36.95
2018-04-07T09:52:09.090Z,35.89
2018-04-07T09:54:02.519Z,36.18
2018-04-07T09:55:02.472Z,35.82
2018-04-07T09:56:55.855Z,35.72
2018-04-07T09:57:55.854Z,35.34
2018-04-07T09:59:49.328Z,35.61
2018-04-07T10:00:49.236Z,35.63
2018-04-07T10:02:42.618Z,35.72
2018-04-07T10:03:42.619Z,35.72
2018-04-07T10:05:36.051Z,35.91
2018-04-07T10:06:36.016Z,36.09
2018-04-07T10:08:29.376Z,36.86
2018-04-07T10:09:29.384Z,37.13
2018-04-07T10:11:28.480Z,37.34
2018-04-07T10:12:28.432Z,36.95
2018-04-07T10:14:21.863Z,37.53
2018-04-07T10:15:21.814Z,37.91
2018-04-07T10:17:15.202Z,38.01
2018-04-07T10:18:15.196Z,38.01
2018-04-07T10:20:13.575Z,36.68
2018-04-07T10:21:13.532Z,36.40
2018-04-07T10:23:06.916Z,36.68
2018-04-07T10:24:06.910Z,37.26
2018-04-07T10:26:00.359Z,37.24
2018-04-07T10:27:00.313Z,37.45
2018-04-07T10:28:53.755Z,36.88
2018-04-07T10:29:53.697Z,36.49
2018-04-07T10:31:47.128Z,36.58
2018-04-07T10:32:47.081Z,35.82
2018-04-07T10:34:40.515Z,36.41
2018-04-07T10:35:40.465Z,36.32
2018-04-07T10:37:33.849Z,36.78
2018-04-07T10:38:33.849Z,36.78
2018-04-07T10:40:27.325Z,36.97
2018-04-07T10:41:27.233Z,37.45
2018-04-07T10:43:20.615Z,37.45
2018-04-07T10:44:20.622Z,37.26
2018-04-07T10:46:15.046Z,37.55
2018-04-07T10:47:15.035Z,38.02
2018-04-07T10:49:09.434Z,37.74
2018-04-07T10:50:09.384Z,37.64
2018-04-07T10:52:02.781Z,38.02
2018-04-07T10:53:02.788Z,38.02
2018-04-07T10:54:57.201Z,38.12
2018-04-07T10:55:57.157Z,38.02
2018-04-07T10:57:50.572Z,38.02
2018-04-07T10:58:50.538Z,37.93
2018-04-07T11:00:43.972Z,37.37
2018-04-07T11:01:43.927Z,37.27
2018-04-07T11:03:37.318Z,37.18
2018-04-07T11:04:37.316Z,37.18
2018-04-07T11:06:34.871Z,36.90
2018-04-07T11:07:34.822Z,36.70
2018-04-07T11:09:28.251Z,36.41
2018-04-07T11:10:28.240Z,36.51
2018-04-07T11:12:21.591Z,36.22
2018-04-07T11:13:21.591Z,36.03
2018-04-07T11:15:15.021Z,36.51
2018-04-07T11:16:14.975Z,36.33
2018-04-07T11:18:08.369Z,35.95
2018-04-07T11:19:08.363Z,35.93
2018-04-07T11:21:01.810Z,35.85
2018-04-07T11:22:01.752Z,35.83
2018-04-07T11:23:55.140Z,36.22
2018-04-07T11:24:55.138Z,36.22
2018-04-07T11:26:48.572Z,36.22
2018-04-07T11:27:48.522Z,35.93
2018-04-07T11:29:41.953Z,35.74
2018-04-07T11:30:41.909Z,35.74
2018-04-07T11:32:35.300Z,36.22
2018-04-07T11:33:35.300Z,36.32
2018-04-07T11:35:28.739Z,36.22
2018-04-07T11:36:28.686Z,36.51
2018-04-07T11:38:22.073Z,36.70
2018-04-07T11:39:22.073Z,35.93
2018-04-07T11:41:16.010Z,35.93
2018-04-07T11:42:15.965Z,35.93
2018-04-07T11:44:13.392Z,35.93
2018-04-07T11:45:13.394Z,35.64
2018-04-07T11:47:06.826Z,35.45
2018-04-07T11:48:06.777Z,36.70
2018-04-07T11:50:00.209Z,34.89
2018-04-07T11:51:00.164Z,34.31
2018-04-07T11:52:53.555Z,34.80
2018-04-07T11:53:53.554Z,35.66
2018-04-07T11:55:46.990Z,35.95
2018-04-07T11:56:46.945Z,34.62
2018-04-07T11:58:41.332Z,33.08
2018-04-07T11:59:41.334Z,34.23
2018-04-07T12:01:34.770Z,33.08
2018-04-07T12:02:34.871Z,32.31
2018-04-07T12:04:29.127Z,33.36
2018-04-07T12:05:29.127Z,33.54
2018-04-07T12:07:22.559Z,35.47
2018-04-07T12:08:22.519Z,34.30
2018-04-07T12:10:15.948Z,34.80
2018-04-07T12:11:15.901Z,34.88
2018-04-07T12:13:09.298Z,34.59
2018-04-07T12:14:09.299Z,34.49
2018-04-07T12:16:02.731Z,34.49
2018-04-07T12:17:02.694Z,34.68
2018-04-07T12:18:57.075Z,34.78
2018-04-07T12:19:57.076Z,34.78
2018-04-07T12:21:50.510Z,35.16
2018-04-07T12:22:50.466Z,35.45
2018-04-07T12:24:43.853Z,35.16
2018-04-07T12:25:43.848Z,34.97
2018-04-07T12:27:37.281Z,34.68
2018-04-07T12:28:37.235Z,34.61
2018-04-07T12:30:30.686Z,34.61
2018-04-07T12:31:30.644Z,34.70
2018-04-07T12:33:24.024Z,34.80
2018-04-07T12:34:24.023Z,35.16
2018-04-07T12:36:17.462Z,35.36
2018-04-07T12:37:17.422Z,35.16
2018-04-07T12:39:10.802Z,34.88
2018-04-07T12:40:10.824Z,34.78
2018-04-07T12:42:04.238Z,34.89
2018-04-07T12:43:04.194Z,34.88
2018-04-07T12:44:58.589Z,35.06
2018-04-07T12:45:58.589Z,35.06
2018-04-07T12:47:53.025Z,34.97
2018-04-07T12:48:52.977Z,35.08
2018-04-07T12:50:46.418Z,35.66
2018-04-07T12:51:46.366Z,39.12
2018-04-07T14:42:35.498Z,30.19
2018-04-07T14:43:35.444Z,31.35
2018-04-07T14:45:28.824Z,30.77
2018-04-07T14:46:28.819Z,30.49
2018-04-07T14:48:22.250Z,31.64
2018-04-07T14:49:22.213Z,31.93
2018-04-07T14:51:16.590Z,31.83
2018-04-07T14:52:16.588Z,31.45
2018-04-07T14:54:10.019Z,31.35
2018-04-07T14:55:09.972Z,30.58
2018-04-07T14:57:03.427Z,33.77
2018-04-07T14:58:03.365Z,32.23
2018-04-07T14:59:56.802Z,30.79
2018-04-07T15:00:56.823Z,30.79
2018-04-07T15:02:50.192Z,30.79
2018-04-07T15:03:50.150Z,30.79
2018-04-07T15:05:43.545Z,30.69
2018-04-07T15:06:43.547Z,30.60
2018-04-07T15:08:37.991Z,30.50
2018-04-07T15:09:37.962Z,30.50
2018-04-07T15:11:31.338Z,30.60
2018-04-07T15:12:31.413Z,30.40
2018-04-07T15:14:24.778Z,30.50
2018-04-07T15:15:24.747Z,30.60
2018-04-07T15:17:18.180Z,30.60
2018-04-07T15:18:18.156Z,30.69
2018-04-07T15:20:11.553Z,30.60
2018-04-07T15:21:11.559Z,30.79
2018-04-07T15:23:04.995Z,30.88
2018-04-07T15:24:04.951Z,30.79
2018-04-07T15:25:58.345Z,31.46
2018-04-07T15:26:58.351Z,30.69
2018-04-07T15:28:51.787Z,30.11
2018-04-07T15:29:51.747Z,29.93
2018-04-07T15:31:45.141Z,29.73
2018-04-07T19:37:40.127Z,42.18
2018-04-07T19:38:40.018Z,42.27
2018-04-07T19:40:33.537Z,43.33
2018-04-07T19:41:33.480Z,43.33
2018-04-07T19:43:26.771Z,43.43
2018-04-07T19:44:26.784Z,42.66
2018-04-07T19:46:21.259Z,43.16
2018-04-07T19:47:21.161Z,43.71
2018-04-07T19:49:14.575Z,44.02
2018-04-07T19:50:14.541Z,44.29
2018-04-07T19:52:08.003Z,44.29
2018-04-07T19:53:07.944Z,43.84
2018-04-07T19:55:01.458Z,44.41
2018-04-07T19:56:01.313Z,44.58
2018-04-07T19:57:54.711Z,44.70
2018-04-07T20:04:00.484Z,43.45
2018-04-07T20:05:00.446Z,43.64
2018-04-07T21:06:32.694Z,43.84
2018-04-07T21:07:32.642Z,43.35
